NY24 weather

Taylor Johnson Airport
Niagara Falls, New York, United States

Public forecast

Using degrees Fahrenheit for public forecast. Weather courtesy of forecast.io.

Closest aviation weather report (METAR) to Taylor Johnson Airport

Report is more than 2 hours old.

Closest report is Niagara Falls International Airport, 1.6 nm (3.0 km) SE. Retrieved 2019/10/17 02:53 UTC (4 hours ago):

KIAG 170253Z COR 26010KT 10SM CLR 07/05 A2947

Closest aviation forecast (TAF) to Taylor Johnson Airport

Closest forecast is Niagara Falls International Airport, 1.6 nm (3.0 km) SE. Retrieved 2019/10/17 06:40 UTC (0 seconds ago):

TAF KIAG 170537Z 1706/1806 28011G18KT P6SM VCSH OVC015 FM170900 30017G27KT P6SM VCSH OVC015 FM171200 30022G34KT 6SM -SHRA BR OVC020 FM171600 31020G32KT P6SM VCSH OVC025 FM172300 31019G30KT P6SM OVC025 FM180200 31017G24KT P6SM OVC020